createdAt,value
2023-10-28T01:10:11.985Z,16.35
2023-10-28T01:12:44.127Z,16.23
2023-10-28T01:17:54.525Z,15.00
2023-10-28T01:25:54.602Z,16.30
2023-10-28T01:28:23.238Z,16.15
2023-10-28T01:30:51.608Z,16.48
2023-10-28T01:33:19.564Z,15.38
2023-10-28T01:35:47.992Z,14.20
2023-10-28T01:38:15.422Z,13.95
2023-10-28T01:40:44.049Z,13.02
2023-10-28T01:43:15.374Z,12.18
2023-10-28T01:45:44.100Z,13.20
2023-10-28T01:48:11.578Z,12.52
2023-10-28T01:50:41.321Z,13.13
2023-10-28T01:53:11.756Z,12.52
2023-10-28T01:55:42.362Z,13.80
2023-10-28T01:58:12.610Z,12.35
2023-10-28T02:00:40.358Z,13.18
2023-10-28T02:03:10.409Z,12.27
2023-10-28T02:05:39.058Z,11.75
2023-10-28T02:08:08.224Z,13.25
2023-10-28T02:10:36.694Z,13.35
2023-10-28T02:13:11.406Z,13.02
2023-10-28T02:15:39.125Z,13.38
2023-10-28T02:18:06.972Z,13.82
2023-10-28T02:20:45.098Z,14.55
2023-10-28T02:23:17.166Z,13.07
2023-10-28T02:25:44.977Z,12.13
2023-10-28T02:28:15.472Z,13.57
2023-10-28T02:30:43.340Z,13.30
2023-10-28T02:33:15.452Z,13.20
2023-10-28T02:35:43.576Z,12.25
2023-10-28T02:38:15.013Z,10.98
2023-10-28T02:40:47.470Z,13.18
2023-10-28T02:43:15.602Z,13.30
2023-10-28T02:45:43.973Z,12.57
2023-10-28T02:48:14.332Z,13.23
2023-10-28T02:50:44.835Z,13.27
2023-10-28T02:53:17.918Z,12.45
2023-10-28T02:55:46.694Z,13.35
2023-10-28T02:58:14.780Z,14.00
2023-10-28T03:00:50.061Z,12.43
2023-10-28T03:03:17.566Z,13.25
2023-10-28T03:05:45.416Z,13.50
2023-10-28T03:08:16.697Z,13.15
2023-10-28T03:10:48.804Z,10.57
2023-10-28T03:13:19.759Z,12.80
2023-10-28T03:15:49.846Z,12.02
2023-10-28T03:18:19.388Z,11.95
2023-10-28T03:20:47.437Z,12.75
2023-10-28T03:23:14.933Z,13.18
2023-10-28T03:25:45.355Z,14.13
2023-10-28T03:28:12.849Z,12.93
2023-10-28T03:30:40.182Z,11.95
2023-10-28T03:33:09.550Z,12.48
2023-10-28T03:35:37.205Z,11.63
2023-10-28T03:38:04.572Z,11.05
2023-10-28T03:40:31.789Z,11.30
2023-10-28T03:43:02.071Z,12.88
2023-10-28T03:45:29.734Z,13.10
2023-10-28T03:47:57.052Z,11.52
2023-10-28T03:50:24.790Z,13.10
2023-10-28T03:52:52.327Z,9.45
2023-10-28T03:55:19.559Z,13.15
2023-10-28T03:57:47.225Z,11.45
2023-10-28T04:00:14.666Z,12.32
2023-10-28T04:02:41.835Z,12.13
2023-10-28T04:05:09.303Z,12.55
2023-10-28T04:10:17.520Z,12.15
2023-10-28T04:12:44.958Z,13.10
2023-10-28T04:15:14.526Z,13.07
2023-10-28T04:17:41.945Z,12.50
2023-10-28T04:20:11.720Z,11.45
2023-10-28T04:22:39.100Z,13.07
2023-10-28T04:25:09.685Z,14.18
2023-10-28T04:27:37.285Z,13.60
2023-10-28T04:30:05.794Z,13.00
2023-10-28T04:32:34.261Z,12.82
2023-10-28T04:35:11.772Z,12.43
2023-10-28T04:37:47.682Z,13.35
2023-10-28T04:43:12.478Z,12.00
2023-10-28T04:48:28.592Z,12.93
2023-10-28T04:50:57.134Z,11.95
2023-10-28T04:53:33.771Z,12.10
2023-10-28T04:56:02.355Z,12.07
2023-10-28T04:58:29.931Z,12.23
2023-10-28T05:00:59.671Z,12.10
2023-10-28T05:03:27.621Z,11.82
2023-10-28T05:06:07.799Z,11.85
2023-10-28T05:08:36.891Z,12.85
2023-10-28T05:11:17.674Z,13.25
2023-10-28T05:13:45.047Z,12.70
2023-10-28T05:16:25.001Z,14.40
2023-10-28T05:21:43.845Z,16.80
2023-10-28T05:24:12.345Z,32.25
2023-10-28T05:29:43.115Z,13.23
2023-10-28T05:35:07.200Z,16.63
2023-10-28T05:37:38.225Z,12.50
2023-10-28T05:40:12.204Z,13.60
2023-10-28T05:42:39.843Z,11.60
2023-10-28T05:47:56.029Z,14.23
2023-10-28T06:10:27.498Z,13.57
2023-10-28T06:13:04.605Z,12.75
2023-10-28T06:30:04.646Z,13.82
2023-10-28T06:38:50.898Z,11.65
2023-10-28T06:41:21.766Z,12.05
2023-10-28T06:43:59.491Z,10.77
2023-10-28T06:46:30.137Z,11.18
2023-10-28T07:10:58.994Z,17.73
2023-10-28T07:36:48.527Z,12.80
2023-10-28T07:46:10.360Z,11.35
2023-10-28T08:08:30.105Z,12.27
2023-10-28T08:20:31.358Z,9.52
2023-10-28T08:23:28.069Z,9.23
2023-10-28T08:26:02.946Z,8.32
2023-10-28T08:31:19.517Z,7.30
2023-10-28T08:33:57.791Z,9.32
2023-10-28T08:36:35.570Z,7.20
2023-10-28T08:42:20.345Z,5.07
2023-10-28T08:47:39.212Z,9.10
2023-10-28T08:52:59.592Z,9.70
2023-10-28T08:55:32.295Z,8.85
2023-10-28T08:58:17.780Z,9.30
2023-10-28T09:00:45.534Z,8.40
2023-10-28T09:03:16.830Z,10.00
2023-10-28T09:05:51.779Z,8.40
2023-10-28T09:08:22.588Z,9.15
2023-10-28T09:10:52.311Z,9.07
2023-10-28T09:13:22.893Z,7.68
2023-10-28T09:15:50.182Z,9.63
2023-10-28T09:18:19.997Z,9.50
2023-10-28T09:20:48.003Z,7.97
2023-10-28T09:23:15.499Z,7.93
2023-10-28T09:25:43.040Z,8.20
2023-10-28T09:28:19.718Z,7.45
2023-10-28T09:30:48.875Z,8.70
2023-10-28T09:33:19.918Z,7.38
2023-10-28T09:35:48.023Z,7.43
2023-10-28T09:38:15.265Z,9.23
2023-10-28T09:40:43.081Z,7.28
2023-10-28T09:43:12.514Z,8.18
2023-10-28T09:45:39.969Z,8.38
2023-10-28T09:48:17.354Z,8.27
2023-10-28T09:50:50.727Z,9.63
2023-10-28T09:53:22.424Z,7.53
2023-10-28T09:55:58.290Z,8.52
2023-10-28T09:58:34.990Z,9.18
2023-10-28T10:01:26.283Z,6.78
2023-10-28T10:04:06.159Z,8.00
2023-10-28T10:06:34.344Z,7.82
2023-10-28T10:09:02.415Z,9.30
2023-10-28T10:11:30.404Z,8.13
2023-10-28T10:14:15.301Z,8.13
2023-10-28T10:17:07.221Z,9.73
2023-10-28T10:19:37.495Z,5.32
2023-10-28T10:22:07.555Z,9.70
2023-10-28T10:24:38.406Z,9.52
2023-10-28T10:27:15.831Z,10.35
2023-10-28T10:29:44.033Z,10.45
2023-10-28T10:35:29.110Z,10.93
2023-10-28T10:38:12.370Z,8.13
2023-10-28T10:41:00.752Z,10.65
2023-10-28T10:43:35.159Z,11.73
2023-10-28T10:46:09.859Z,11.32
2023-10-28T10:48:38.239Z,9.25
2023-10-28T10:51:10.763Z,10.57
2023-10-28T10:53:47.175Z,8.20
2023-10-28T10:56:32.464Z,9.15
2023-10-28T10:59:07.389Z,10.77
2023-10-28T11:02:09.381Z,9.10
2023-10-28T11:04:43.592Z,8.43
2023-10-28T11:07:24.403Z,10.07
2023-10-28T11:09:55.586Z,7.07
2023-10-28T11:12:25.084Z,9.98
2023-10-28T11:14:56.296Z,9.25
2023-10-28T11:17:27.971Z,9.65
2023-10-28T11:20:04.767Z,9.23
2023-10-28T11:25:38.333Z,8.05
2023-10-28T11:28:12.724Z,10.43
2023-10-28T11:30:50.511Z,9.77
2023-10-28T11:33:31.480Z,9.80
2023-10-28T11:38:41.522Z,11.00
2023-10-28T11:41:09.689Z,11.40
2023-10-28T11:43:41.820Z,10.60
2023-10-28T11:46:15.804Z,11.48
2023-10-28T11:51:40.137Z,11.80
2023-10-28T11:54:14.103Z,11.50
2023-10-28T11:59:43.537Z,11.48
2023-10-28T12:05:30.528Z,10.45
2023-10-28T12:08:25.701Z,8.73
2023-10-28T12:10:56.882Z,10.85
2023-10-28T12:13:26.854Z,9.18
2023-10-28T12:18:42.448Z,8.20
2023-10-28T12:24:11.133Z,10.52
2023-10-28T12:29:34.062Z,10.32
2023-10-28T12:34:49.180Z,9.05
2023-10-28T12:37:23.089Z,9.52
2023-10-28T12:39:52.297Z,8.45
2023-10-28T12:42:45.968Z,11.02
2023-10-28T12:45:19.186Z,8.30
2023-10-28T12:50:33.174Z,10.45
2023-10-28T12:53:09.080Z,9.52
2023-10-28T12:55:57.218Z,12.20
2023-10-28T12:58:30.499Z,12.85
2023-10-28T13:01:01.824Z,10.25
2023-10-28T13:03:37.647Z,12.93
2023-10-28T13:06:13.009Z,13.70
2023-10-28T13:08:42.568Z,11.88
2023-10-28T13:14:00.624Z,8.88
2023-10-28T13:16:36.838Z,10.93
2023-10-28T13:19:06.594Z,11.90
2023-10-28T13:21:38.951Z,10.20
2023-10-28T13:24:10.743Z,11.77
2023-10-28T13:26:40.585Z,11.05
2023-10-28T13:29:08.826Z,10.90
2023-10-28T13:31:39.844Z,9.55
2023-10-28T13:37:28.717Z,11.55
2023-10-28T13:42:54.279Z,9.40
2023-10-28T13:45:51.619Z,8.40
2023-10-28T13:51:14.225Z,9.73
2023-10-28T13:53:42.566Z,8.05
2023-10-28T13:56:10.254Z,7.63
2023-10-28T13:58:47.742Z,6.90
2023-10-28T14:01:17.286Z,8.93
2023-10-28T14:03:48.537Z,8.70
2023-10-28T14:06:21.891Z,8.48
2023-10-28T14:11:34.955Z,7.93
2023-10-28T14:16:58.938Z,9.02
2023-10-28T14:19:33.257Z,8.88
2023-10-28T14:22:08.542Z,7.55
2023-10-28T14:24:43.231Z,5.90
2023-10-28T14:27:12.784Z,6.18
2023-10-28T14:29:47.440Z,6.13
2023-10-28T14:32:26.231Z,6.50
2023-10-28T14:35:02.686Z,7.15
2023-10-28T14:37:41.825Z,6.35
2023-10-28T14:40:14.803Z,6.95
2023-10-28T14:42:48.801Z,5.97
2023-10-28T14:45:23.444Z,7.13
2023-10-28T14:47:53.755Z,5.90
2023-10-28T14:50:24.441Z,6.28
2023-10-28T14:52:52.280Z,7.00
2023-10-28T14:55:30.998Z,5.63
2023-10-28T14:58:12.793Z,5.93
2023-10-28T15:00:50.461Z,7.18
2023-10-28T15:03:38.185Z,5.75
2023-10-28T15:06:09.363Z,6.40
2023-10-28T15:11:34.294Z,5.10
2023-10-28T15:14:06.818Z,5.45
2023-10-28T15:16:38.927Z,7.00
2023-10-28T15:19:50.383Z,5.50
2023-10-28T15:22:24.723Z,5.70
2023-10-28T15:25:04.767Z,5.70
2023-10-28T15:27:37.045Z,5.95
2023-10-28T15:30:18.820Z,5.90
2023-10-28T15:33:09.068Z,6.55
2023-10-28T15:38:32.307Z,5.90
2023-10-28T15:41:12.012Z,5.25
2023-10-28T15:43:43.489Z,7.57
2023-10-28T15:49:17.426Z,6.18
2023-10-28T15:52:10.174Z,6.75
2023-10-28T15:54:42.448Z,7.30
2023-10-28T15:57:17.104Z,6.00
2023-10-28T15:59:54.702Z,5.38
2023-10-28T16:02:36.645Z,5.32
2023-10-28T16:05:04.641Z,5.68
2023-10-28T16:07:40.292Z,6.57
2023-10-28T16:10:09.006Z,5.80
2023-10-28T16:12:42.955Z,6.25
2023-10-28T16:15:18.103Z,6.03
2023-10-28T16:18:05.460Z,6.07
2023-10-28T16:23:45.031Z,6.40
2023-10-28T16:26:25.848Z,6.60
2023-10-28T16:29:17.966Z,7.55
2023-10-28T16:31:48.958Z,6.63
2023-10-28T16:34:17.568Z,5.85
2023-10-28T16:36:47.558Z,6.55
2023-10-28T16:45:10.090Z,6.28
2023-10-28T16:47:55.411Z,6.82
2023-10-28T16:53:15.365Z,5.13
2023-10-28T16:59:10.722Z,5.05
2023-10-28T17:01:57.492Z,5.78
2023-10-28T17:08:06.961Z,5.53
2023-10-28T17:17:27.040Z,5.47
2023-10-28T17:20:06.742Z,5.10
2023-10-28T17:23:39.149Z,5.18
2023-10-28T17:30:13.446Z,5.47
2023-10-28T17:33:14.256Z,5.18
2023-10-28T17:35:49.887Z,5.30
2023-10-28T17:41:12.448Z,5.70
2023-10-28T17:43:47.030Z,5.32
2023-10-28T17:46:19.853Z,5.72
2023-10-28T17:49:07.155Z,5.03
2023-10-28T17:51:56.441Z,5.10
2023-10-28T17:54:38.392Z,4.95
2023-10-28T17:57:13.378Z,6.80
2023-10-28T17:59:46.605Z,5.65
2023-10-28T18:02:29.809Z,5.13
2023-10-28T18:05:00.809Z,3.95
2023-10-28T18:07:31.192Z,4.38
2023-10-28T18:09:58.800Z,5.38
2023-10-28T18:12:27.892Z,5.00
2023-10-28T18:14:58.876Z,4.32
2023-10-28T18:17:31.376Z,4.95
